sensor_id;sensor_type;location;lat;lon;timestamp;pressure;altitude;pressure_sealevel;temperature;humidity
75945;BME280;64628;50.104;14.614;2024-01-27T00:02:04;99748.36;;;6.87;35.28
75945;BME280;64628;50.104;14.614;2024-01-27T00:04:30;99753.61;;;7.22;35.05
75945;BME280;64628;50.104;14.614;2024-01-27T00:06:56;99752.84;;;7.14;35.16
75945;BME280;64628;50.104;14.614;2024-01-27T00:09:21;99755.24;;;7.06;35.51
75945;BME280;64628;50.104;14.614;2024-01-27T00:11:46;99754.69;;;7.24;35.42
75945;BME280;64628;50.104;14.614;2024-01-27T00:14:12;99758.28;;;7.00;36.40
75945;BME280;64628;50.104;14.614;2024-01-27T00:16:38;99755.75;;;6.73;35.99
75945;BME280;64628;50.104;14.614;2024-01-27T00:19:03;99753.85;;;6.88;36.05
75945;BME280;64628;50.104;14.614;2024-01-27T00:21:28;99751.57;;;6.75;36.43
75945;BME280;64628;50.104;14.614;2024-01-27T00:23:54;99751.46;;;6.62;36.41
75945;BME280;64628;50.104;14.614;2024-01-27T00:26:19;99755.61;;;6.79;36.33
75945;BME280;64628;50.104;14.614;2024-01-27T00:28:45;99762.94;;;6.40;36.83
75945;BME280;64628;50.104;14.614;2024-01-27T00:31:10;99765.91;;;6.16;36.73
75945;BME280;64628;50.104;14.614;2024-01-27T00:33:36;99767.15;;;6.63;36.07
75945;BME280;64628;50.104;14.614;2024-01-27T00:36:02;99765.76;;;6.71;36.03
75945;BME280;64628;50.104;14.614;2024-01-27T00:38:26;99771.97;;;6.72;35.95
75945;BME280;64628;50.104;14.614;2024-01-27T00:40:51;99777.71;;;6.80;35.59
75945;BME280;64628;50.104;14.614;2024-01-27T00:43:17;99782.18;;;6.52;35.44
75945;BME280;64628;50.104;14.614;2024-01-27T00:45:43;99786.79;;;6.74;35.61
75945;BME280;64628;50.104;14.614;2024-01-27T00:48:09;99790.93;;;6.89;35.33
75945;BME280;64628;50.104;14.614;2024-01-27T00:50:34;99797.33;;;6.48;35.53
75945;BME280;64628;50.104;14.614;2024-01-27T00:53:00;99797.20;;;6.63;35.36
75945;BME280;64628;50.104;14.614;2024-01-27T00:55:26;99788.14;;;6.66;35.13
75945;BME280;64628;50.104;14.614;2024-01-27T00:57:51;99790.25;;;6.71;35.03
75945;BME280;64628;50.104;14.614;2024-01-27T01:00:17;99787.72;;;6.97;35.03
75945;BME280;64628;50.104;14.614;2024-01-27T01:02:42;99789.02;;;6.66;35.08
75945;BME280;64628;50.104;14.614;2024-01-27T01:05:08;99784.72;;;7.06;34.96
75945;BME280;64628;50.104;14.614;2024-01-27T01:07:33;99781.18;;;6.78;35.14
75945;BME280;64628;50.104;14.614;2024-01-27T01:09:59;99782.54;;;6.90;34.83
75945;BME280;64628;50.104;14.614;2024-01-27T01:12:24;99792.39;;;7.00;34.99
75945;BME280;64628;50.104;14.614;2024-01-27T01:14:50;99797.43;;;6.98;34.85
75945;BME280;64628;50.104;14.614;2024-01-27T01:17:15;99798.63;;;6.85;34.93
75945;BME280;64628;50.104;14.614;2024-01-27T01:19:41;99797.91;;;6.51;34.94
75945;BME280;64628;50.104;14.614;2024-01-27T01:22:06;99800.16;;;7.16;34.62
75945;BME280;64628;50.104;14.614;2024-01-27T01:24:31;99804.01;;;7.02;35.10
75945;BME280;64628;50.104;14.614;2024-01-27T01:26:56;99803.85;;;6.92;34.75
75945;BME280;64628;50.104;14.614;2024-01-27T01:29:21;99804.95;;;6.97;34.62
75945;BME280;64628;50.104;14.614;2024-01-27T01:31:47;99810.41;;;7.22;34.66
75945;BME280;64628;50.104;14.614;2024-01-27T01:34:13;99811.11;;;6.66;34.83
75945;BME280;64628;50.104;14.614;2024-01-27T01:36:38;99811.07;;;6.84;35.02
75945;BME280;64628;50.104;14.614;2024-01-27T01:39:04;99817.27;;;7.15;34.89
75945;BME280;64628;50.104;14.614;2024-01-27T01:41:30;99823.58;;;6.55;35.04
75945;BME280;64628;50.104;14.614;2024-01-27T01:43:55;99825.76;;;6.66;35.14
75945;BME280;64628;50.104;14.614;2024-01-27T01:46:22;99832.27;;;6.96;35.14
75945;BME280;64628;50.104;14.614;2024-01-27T01:48:46;99841.03;;;6.88;35.04
75945;BME280;64628;50.104;14.614;2024-01-27T01:51:13;99845.61;;;6.82;35.17
75945;BME280;64628;50.104;14.614;2024-01-27T01:53:38;99843.82;;;6.69;35.34
75945;BME280;64628;50.104;14.614;2024-01-27T01:56:04;99845.55;;;6.75;35.37
75945;BME280;64628;50.104;14.614;2024-01-27T01:58:29;99848.34;;;6.96;35.04
75945;BME280;64628;50.104;14.614;2024-01-27T02:00:55;99844.03;;;6.67;35.51
75945;BME280;64628;50.104;14.614;2024-01-27T02:03:20;99843.70;;;6.59;35.41
75945;BME280;64628;50.104;14.614;2024-01-27T02:05:46;99839.72;;;6.72;35.45
75945;BME280;64628;50.104;14.614;2024-01-27T02:08:12;99843.35;;;6.53;35.56
75945;BME280;64628;50.104;14.614;2024-01-27T02:10:37;99846.39;;;6.63;35.33
75945;BME280;64628;50.104;14.614;2024-01-27T02:13:03;99849.81;;;6.64;35.39
75945;BME280;64628;50.104;14.614;2024-01-27T02:15:28;99853.02;;;6.46;35.17
75945;BME280;64628;50.104;14.614;2024-01-27T02:17:54;99856.40;;;6.75;35.21
75945;BME280;64628;50.104;14.614;2024-01-27T02:20:20;99858.93;;;6.70;35.59
75945;BME280;64628;50.104;14.614;2024-01-27T02:22:46;99860.69;;;6.80;35.19
75945;BME280;64628;50.104;14.614;2024-01-27T02:25:12;99855.96;;;7.04;34.99
75945;BME280;64628;50.104;14.614;2024-01-27T02:27:37;99860.81;;;6.77;35.06
75945;BME280;64628;50.104;14.614;2024-01-27T02:30:03;99862.17;;;6.64;35.07
75945;BME280;64628;50.104;14.614;2024-01-27T02:32:28;99861.77;;;6.69;35.23
75945;BME280;64628;50.104;14.614;2024-01-27T02:34:53;99864.46;;;6.69;35.67
75945;BME280;64628;50.104;14.614;2024-01-27T02:37:18;99867.56;;;6.59;35.64
75945;BME280;64628;50.104;14.614;2024-01-27T02:39:44;99867.56;;;7.02;35.09
75945;BME280;64628;50.104;14.614;2024-01-27T02:42:10;99868.93;;;6.93;34.88
75945;BME280;64628;50.104;14.614;2024-01-27T02:44:36;99871.53;;;6.75;35.04
75945;BME280;64628;50.104;14.614;2024-01-27T02:47:01;99870.04;;;6.92;35.23
75945;BME280;64628;50.104;14.614;2024-01-27T02:49:27;99875.62;;;6.95;35.21
75945;BME280;64628;50.104;14.614;2024-01-27T02:51:52;99874.86;;;6.75;35.28
75945;BME280;64628;50.104;14.614;2024-01-27T02:54:17;99879.86;;;6.85;35.23
75945;BME280;64628;50.104;14.614;2024-01-27T02:56:42;99878.24;;;6.47;35.54
75945;BME280;64628;50.104;14.614;2024-01-27T02:59:08;99887.32;;;6.39;35.49
75945;BME280;64628;50.104;14.614;2024-01-27T03:01:34;99886.62;;;6.51;35.52
75945;BME280;64628;50.104;14.614;2024-01-27T03:04:00;99884.44;;;6.16;35.51
75945;BME280;64628;50.104;14.614;2024-01-27T03:06:25;99885.28;;;6.45;35.18
75945;BME280;64628;50.104;14.614;2024-01-27T03:08:51;99884.74;;;6.33;35.42
75945;BME280;64628;50.104;14.614;2024-01-27T03:11:16;99887.23;;;6.29;35.06
75945;BME280;64628;50.104;14.614;2024-01-27T03:13:42;99889.48;;;6.49;34.64
75945;BME280;64628;50.104;14.614;2024-01-27T03:16:09;99893.55;;;6.23;35.07
75945;BME280;64628;50.104;14.614;2024-01-27T03:18:33;99889.10;;;5.93;34.79
75945;BME280;64628;50.104;14.614;2024-01-27T03:20:59;99892.98;;;6.10;34.76
75945;BME280;64628;50.104;14.614;2024-01-27T03:23:24;99900.98;;;5.85;34.69
75945;BME280;64628;50.104;14.614;2024-01-27T03:25:50;99896.43;;;6.05;34.39
75945;BME280;64628;50.104;14.614;2024-01-27T03:28:16;99896.67;;;5.95;34.76
75945;BME280;64628;50.104;14.614;2024-01-27T03:30:41;99900.47;;;6.21;34.01
75945;BME280;64628;50.104;14.614;2024-01-27T03:33:07;99903.93;;;6.28;34.10
75945;BME280;64628;50.104;14.614;2024-01-27T03:35:32;99900.54;;;6.45;33.84
75945;BME280;64628;50.104;14.614;2024-01-27T03:37:58;99906.71;;;6.14;33.86
75945;BME280;64628;50.104;14.614;2024-01-27T03:40:23;99911.78;;;6.00;34.32
75945;BME280;64628;50.104;14.614;2024-01-27T03:42:48;99911.82;;;6.34;34.09
75945;BME280;64628;50.104;14.614;2024-01-27T03:45:13;99918.32;;;6.05;33.94
75945;BME280;64628;50.104;14.614;2024-01-27T03:47:38;99922.98;;;6.03;33.97
75945;BME280;64628;50.104;14.614;2024-01-27T03:50:05;99923.58;;;6.30;33.45
75945;BME280;64628;50.104;14.614;2024-01-27T03:52:30;99933.78;;;6.32;33.85
75945;BME280;64628;50.104;14.614;2024-01-27T03:54:55;99937.55;;;6.65;33.52
75945;BME280;64628;50.104;14.614;2024-01-27T03:57:21;99944.59;;;5.99;34.08
75945;BME280;64628;50.104;14.614;2024-01-27T03:59:46;99946.88;;;5.98;33.58
75945;BME280;64628;50.104;14.614;2024-01-27T04:02:11;99948.34;;;5.93;34.20
75945;BME280;64628;50.104;14.614;2024-01-27T04:04:37;99951.33;;;6.01;33.65
75945;BME280;64628;50.104;14.614;2024-01-27T04:07:02;99952.99;;;6.04;33.90
75945;BME280;64628;50.104;14.614;2024-01-27T04:09:27;99956.71;;;5.96;34.06
75945;BME280;64628;50.104;14.614;2024-01-27T04:11:53;99960.11;;;5.58;33.84
75945;BME280;64628;50.104;14.614;2024-01-27T04:14:18;99964.89;;;5.88;34.00
75945;BME280;64628;50.104;14.614;2024-01-27T04:16:44;99966.48;;;6.13;33.55
75945;BME280;64628;50.104;14.614;2024-01-27T04:19:09;99970.75;;;5.78;33.74
75945;BME280;64628;50.104;14.614;2024-01-27T04:21:34;99975.18;;;6.00;33.46
75945;BME280;64628;50.104;14.614;2024-01-27T04:24:00;99975.83;;;5.98;33.04
75945;BME280;64628;50.104;14.614;2024-01-27T04:26:26;99979.86;;;6.13;33.04
75945;BME280;64628;50.104;14.614;2024-01-27T04:28:51;99977.72;;;6.29;32.99
75945;BME280;64628;50.104;14.614;2024-01-27T04:31:17;99984.68;;;6.43;33.38
75945;BME280;64628;50.104;14.614;2024-01-27T04:33:42;99985.29;;;5.82;33.14
75945;BME280;64628;50.104;14.614;2024-01-27T04:36:07;99985.59;;;5.98;32.88
75945;BME280;64628;50.104;14.614;2024-01-27T04:38:33;99986.58;;;6.02;33.02
75945;BME280;64628;50.104;14.614;2024-01-27T04:40:59;99984.26;;;5.99;33.41
75945;BME280;64628;50.104;14.614;2024-01-27T04:43:24;99982.86;;;6.16;33.34
75945;BME280;64628;50.104;14.614;2024-01-27T04:45:50;99982.35;;;5.49;33.58
75945;BME280;64628;50.104;14.614;2024-01-27T04:48:14;99986.57;;;5.81;33.37
75945;BME280;64628;50.104;14.614;2024-01-27T04:50:40;99979.63;;;5.96;33.55
75945;BME280;64628;50.104;14.614;2024-01-27T04:53:05;99984.63;;;5.85;33.83
75945;BME280;64628;50.104;14.614;2024-01-27T04:55:30;99980.56;;;5.90;33.72
75945;BME280;64628;50.104;14.614;2024-01-27T04:57:56;99980.16;;;5.58;34.08
75945;BME280;64628;50.104;14.614;2024-01-27T05:00:22;99982.26;;;5.84;33.93
75945;BME280;64628;50.104;14.614;2024-01-27T05:02:47;99980.88;;;5.78;34.04
75945;BME280;64628;50.104;14.614;2024-01-27T05:05:13;99976.97;;;5.79;34.10
75945;BME280;64628;50.104;14.614;2024-01-27T05:07:38;99984.40;;;5.77;34.26
75945;BME280;64628;50.104;14.614;2024-01-27T05:10:04;99987.57;;;5.72;34.28
75945;BME280;64628;50.104;14.614;2024-01-27T05:12:29;99989.71;;;5.60;34.57
75945;BME280;64628;50.104;14.614;2024-01-27T05:14:55;99992.32;;;5.20;34.61
75945;BME280;64628;50.104;14.614;2024-01-27T05:17:20;99994.30;;;5.59;34.93
75945;BME280;64628;50.104;14.614;2024-01-27T05:19:46;99997.50;;;5.41;34.67
75945;BME280;64628;50.104;14.614;2024-01-27T05:22:11;99997.69;;;5.10;34.87
75945;BME280;64628;50.104;14.614;2024-01-27T05:24:37;99997.00;;;5.25;35.14
75945;BME280;64628;50.104;14.614;2024-01-27T05:27:03;100006.37;;;5.42;35.01
75945;BME280;64628;50.104;14.614;2024-01-27T05:29:28;100016.63;;;5.06;34.85
75945;BME280;64628;50.104;14.614;2024-01-27T05:31:53;100013.13;;;5.67;35.19
75945;BME280;64628;50.104;14.614;2024-01-27T05:34:19;100015.07;;;5.45;35.12
75945;BME280;64628;50.104;14.614;2024-01-27T05:36:43;100016.69;;;5.58;35.08
75945;BME280;64628;50.104;14.614;2024-01-27T05:39:09;100013.54;;;5.61;35.01
75945;BME280;64628;50.104;14.614;2024-01-27T05:41:34;100014.71;;;5.62;35.03
75945;BME280;64628;50.104;14.614;2024-01-27T05:43:59;100008.40;;;5.31;35.22
75945;BME280;64628;50.104;14.614;2024-01-27T05:46:25;100007.55;;;5.36;35.57
75945;BME280;64628;50.104;14.614;2024-01-27T05:48:50;100003.38;;;5.43;35.46
75945;BME280;64628;50.104;14.614;2024-01-27T05:51:15;99999.12;;;5.21;35.39
75945;BME280;64628;50.104;14.614;2024-01-27T05:53:40;100001.60;;;5.21;35.78
75945;BME280;64628;50.104;14.614;2024-01-27T05:56:06;100005.32;;;5.55;35.80
75945;BME280;64628;50.104;14.614;2024-01-27T05:58:31;100011.61;;;4.93;35.63
75945;BME280;64628;50.104;14.614;2024-01-27T06:00:56;100011.78;;;5.49;35.47
75945;BME280;64628;50.104;14.614;2024-01-27T06:03:22;100008.93;;;5.64;35.57
75945;BME280;64628;50.104;14.614;2024-01-27T06:05:47;100009.94;;;5.42;35.68
75945;BME280;64628;50.104;14.614;2024-01-27T06:08:13;100013.60;;;5.18;35.90
75945;BME280;64628;50.104;14.614;2024-01-27T06:10:40;100014.07;;;5.30;36.14
75945;BME280;64628;50.104;14.614;2024-01-27T06:13:04;100017.15;;;5.08;36.08
75945;BME280;64628;50.104;14.614;2024-01-27T06:15:30;100028.27;;;5.21;35.99
75945;BME280;64628;50.104;14.614;2024-01-27T06:17:55;100025.59;;;4.99;36.23
75945;BME280;64628;50.104;14.614;2024-01-27T06:20:20;100032.56;;;4.91;36.36
75945;BME280;64628;50.104;14.614;2024-01-27T06:22:45;100035.62;;;5.29;35.88
75945;BME280;64628;50.104;14.614;2024-01-27T06:25:11;100040.76;;;4.86;36.24
75945;BME280;64628;50.104;14.614;2024-01-27T06:27:36;100046.26;;;4.93;36.40
75945;BME280;64628;50.104;14.614;2024-01-27T06:30:01;100049.34;;;5.02;36.28
75945;BME280;64628;50.104;14.614;2024-01-27T06:32:26;100042.86;;;4.59;36.63
75945;BME280;64628;50.104;14.614;2024-01-27T06:34:51;100052.99;;;4.77;36.58
75945;BME280;64628;50.104;14.614;2024-01-27T06:37:17;100059.66;;;5.04;36.50
75945;BME280;64628;50.104;14.614;2024-01-27T06:39:42;100064.51;;;4.78;36.51
75945;BME280;64628;50.104;14.614;2024-01-27T06:42:07;100069.31;;;4.86;36.34
75945;BME280;64628;50.104;14.614;2024-01-27T06:44:33;100073.42;;;5.13;36.34
75945;BME280;64628;50.104;14.614;2024-01-27T06:46:59;100079.96;;;4.78;36.35
75945;BME280;64628;50.104;14.614;2024-01-27T06:49:24;100084.00;;;5.11;36.06
75945;BME280;64628;50.104;14.614;2024-01-27T06:51:50;100093.10;;;5.63;35.62
75945;BME280;64628;50.104;14.614;2024-01-27T06:54:15;100098.09;;;5.35;35.54
75945;BME280;64628;50.104;14.614;2024-01-27T06:56:40;100099.15;;;5.58;35.39
75945;BME280;64628;50.104;14.614;2024-01-27T06:59:06;100094.02;;;5.46;35.27
75945;BME280;64628;50.104;14.614;2024-01-27T07:01:30;100097.56;;;5.49;35.31
75945;BME280;64628;50.104;14.614;2024-01-27T07:03:56;100103.49;;;5.81;34.85
75945;BME280;64628;50.104;14.614;2024-01-27T07:06:21;100104.64;;;5.71;34.88
75945;BME280;64628;50.104;14.614;2024-01-27T07:08:47;100108.01;;;5.52;34.71
75945;BME280;64628;50.104;14.614;2024-01-27T07:11:12;100108.18;;;5.97;34.37
75945;BME280;64628;50.104;14.614;2024-01-27T07:13:38;100113.18;;;5.94;34.31
75945;BME280;64628;50.104;14.614;2024-01-27T07:16:04;100113.99;;;6.14;34.36
75945;BME280;64628;50.104;14.614;2024-01-27T07:18:28;100119.91;;;5.81;34.17
75945;BME280;64628;50.104;14.614;2024-01-27T07:20:55;100124.89;;;6.38;34.01
75945;BME280;64628;50.104;14.614;2024-01-27T07:23:19;100133.48;;;5.80;34.11
75945;BME280;64628;50.104;14.614;2024-01-27T07:25:44;100138.16;;;6.17;34.22
75945;BME280;64628;50.104;14.614;2024-01-27T07:28:10;100134.84;;;6.26;34.04
75945;BME280;64628;50.104;14.614;2024-01-27T07:30:36;100132.46;;;5.80;34.16
75945;BME280;64628;50.104;14.614;2024-01-27T07:33:00;100136.90;;;6.38;33.99
75945;BME280;64628;50.104;14.614;2024-01-27T07:35:26;100137.19;;;5.94;34.17
75945;BME280;64628;50.104;14.614;2024-01-27T07:37:51;100130.24;;;5.83;34.19
75945;BME280;64628;50.104;14.614;2024-01-27T07:40:16;100138.07;;;6.22;34.36
75945;BME280;64628;50.104;14.614;2024-01-27T07:42:41;100145.87;;;5.83;34.10
75945;BME280;64628;50.104;14.614;2024-01-27T07:45:07;100143.76;;;6.11;34.01
75945;BME280;64628;50.104;14.614;2024-01-27T07:47:32;100151.64;;;6.18;33.93
75945;BME280;64628;50.104;14.614;2024-01-27T07:49:58;100161.64;;;6.10;33.63
75945;BME280;64628;50.104;14.614;2024-01-27T07:52:23;100163.81;;;6.36;33.58
75945;BME280;64628;50.104;14.614;2024-01-27T07:54:49;100159.98;;;6.56;33.55
75945;BME280;64628;50.104;14.614;2024-01-27T07:57:14;100157.54;;;6.21;33.64
75945;BME280;64628;50.104;14.614;2024-01-27T07:59:39;100160.02;;;6.69;33.37
75945;BME280;64628;50.104;14.614;2024-01-27T08:02:05;100164.20;;;6.85;33.34
75945;BME280;64628;50.104;14.614;2024-01-27T08:04:30;100161.45;;;7.07;32.77
75945;BME280;64628;50.104;14.614;2024-01-27T08:06:56;100160.36;;;7.09;32.40
75945;BME280;64628;50.104;14.614;2024-01-27T08:09:21;100162.91;;;7.08;32.35
75945;BME280;64628;50.104;14.614;2024-01-27T08:11:47;100164.74;;;6.65;32.91
75945;BME280;64628;50.104;14.614;2024-01-27T08:14:13;100174.72;;;6.89;33.09
75945;BME280;64628;50.104;14.614;2024-01-27T08:16:38;100177.45;;;6.96;33.20
75945;BME280;64628;50.104;14.614;2024-01-27T08:19:03;100176.05;;;6.90;32.67
75945;BME280;64628;50.104;14.614;2024-01-27T08:21:29;100182.29;;;7.46;32.41
75945;BME280;64628;50.104;14.614;2024-01-27T08:23:54;100191.62;;;7.32;32.49
75945;BME280;64628;50.104;14.614;2024-01-27T08:26:20;100193.34;;;7.13;32.18
75945;BME280;64628;50.104;14.614;2024-01-27T08:28:45;100197.78;;;7.64;32.17
75945;BME280;64628;50.104;14.614;2024-01-27T08:31:12;100193.59;;;7.45;32.20
75945;BME280;64628;50.104;14.614;2024-01-27T08:33:37;100200.94;;;7.36;32.22
75945;BME280;64628;50.104;14.614;2024-01-27T08:36:03;100195.29;;;7.96;31.73
75945;BME280;64628;50.104;14.614;2024-01-27T08:38:28;100197.62;;;8.20;31.04
75945;BME280;64628;50.104;14.614;2024-01-27T08:40:53;100200.11;;;8.42;30.65
75945;BME280;64628;50.104;14.614;2024-01-27T08:43:18;100207.72;;;8.28;30.93
75945;BME280;64628;50.104;14.614;2024-01-27T08:45:44;100195.56;;;8.54;30.19
75945;BME280;64628;50.104;14.614;2024-01-27T08:48:10;100194.32;;;8.77;29.94
75945;BME280;64628;50.104;14.614;2024-01-27T08:50:35;100198.72;;;9.04;29.78
75945;BME280;64628;50.104;14.614;2024-01-27T08:53:00;100213.70;;;9.15;29.48
75945;BME280;64628;50.104;14.614;2024-01-27T08:55:26;100206.57;;;9.41;29.20
75945;BME280;64628;50.104;14.614;2024-01-27T08:57:52;100203.87;;;9.53;28.74
75945;BME280;64628;50.104;14.614;2024-01-27T09:00:17;100206.92;;;9.51;28.52
75945;BME280;64628;50.104;14.614;2024-01-27T09:02:43;100210.93;;;9.87;28.32
75945;BME280;64628;50.104;14.614;2024-01-27T09:05:08;100208.50;;;10.60;27.48
75945;BME280;64628;50.104;14.614;2024-01-27T09:07:34;100210.13;;;11.05;27.15
75945;BME280;64628;50.104;14.614;2024-01-27T09:09:59;100214.67;;;11.46;26.16
75945;BME280;64628;50.104;14.614;2024-01-27T09:12:25;100213.04;;;11.77;25.87
75945;BME280;64628;50.104;14.614;2024-01-27T09:14:50;100218.67;;;12.06;25.21
75945;BME280;64628;50.104;14.614;2024-01-27T09:17:16;100219.17;;;11.58;26.19
75945;BME280;64628;50.104;14.614;2024-01-27T09:19:41;100225.25;;;10.28;26.75
75945;BME280;64628;50.104;14.614;2024-01-27T09:22:06;100229.02;;;10.35;27.41
75945;BME280;64628;50.104;14.614;2024-01-27T09:24:32;100229.64;;;10.31;27.71
75945;BME280;64628;50.104;14.614;2024-01-27T09:26:57;100229.17;;;9.77;28.02
75945;BME280;64628;50.104;14.614;2024-01-27T09:29:22;100234.41;;;9.86;28.51
75945;BME280;64628;50.104;14.614;2024-01-27T09:31:48;100241.85;;;9.99;28.30
75945;BME280;64628;50.104;14.614;2024-01-27T09:34:13;100247.89;;;9.79;28.69
75945;BME280;64628;50.104;14.614;2024-01-27T09:36:38;100251.69;;;9.96;28.77
75945;BME280;64628;50.104;14.614;2024-01-27T09:39:04;100253.92;;;9.38;28.87
75945;BME280;64628;50.104;14.614;2024-01-27T09:41:31;100253.92;;;9.33;29.20
75945;BME280;64628;50.104;14.614;2024-01-27T09:43:56;100252.45;;;9.31;29.35
75945;BME280;64628;50.104;14.614;2024-01-27T09:46:20;100251.90;;;8.87;29.80
75945;BME280;64628;50.104;14.614;2024-01-27T09:48:45;100246.29;;;8.89;29.85
75945;BME280;64628;50.104;14.614;2024-01-27T09:51:11;100246.84;;;9.01;29.88
75945;BME280;64628;50.104;14.614;2024-01-27T09:53:37;100250.30;;;9.54;29.32
75945;BME280;64628;50.104;14.614;2024-01-27T09:56:03;100245.01;;;9.60;29.25
75945;BME280;64628;50.104;14.614;2024-01-27T09:58:29;100251.16;;;9.44;29.11
75945;BME280;64628;50.104;14.614;2024-01-27T10:00:54;100252.21;;;9.46;29.34
75945;BME280;64628;50.104;14.614;2024-01-27T10:03:19;100259.71;;;9.11;30.03
75945;BME280;64628;50.104;14.614;2024-01-27T10:05:44;100249.95;;;8.98;29.99
75945;BME280;64628;50.104;14.614;2024-01-27T10:08:10;100251.76;;;9.36;29.73
75945;BME280;64628;50.104;14.614;2024-01-27T10:10:35;100252.18;;;9.26;29.86
75945;BME280;64628;50.104;14.614;2024-01-27T10:13:01;100256.87;;;9.22;29.98
75945;BME280;64628;50.104;14.614;2024-01-27T10:15:27;100254.05;;;9.08;30.46
75945;BME280;64628;50.104;14.614;2024-01-27T10:17:52;100249.14;;;9.41;29.81
75945;BME280;64628;50.104;14.614;2024-01-27T10:20:22;100248.73;;;9.51;30.24
75945;BME280;64628;50.104;14.614;2024-01-27T10:22:43;100250.23;;;9.28;29.80
75945;BME280;64628;50.104;14.614;2024-01-27T10:25:08;100244.32;;;9.56;29.33
75945;BME280;64628;50.104;14.614;2024-01-27T10:27:33;100247.08;;;10.08;29.27
75945;BME280;64628;50.104;14.614;2024-01-27T10:29:59;100247.95;;;10.07;29.11
75945;BME280;64628;50.104;14.614;2024-01-27T10:32:24;100246.57;;;9.79;29.23
75945;BME280;64628;50.104;14.614;2024-01-27T10:35:00;100243.17;;;10.32;29.38
75945;BME280;64628;50.104;14.614;2024-01-27T10:37:15;100242.45;;;9.90;29.05
75945;BME280;64628;50.104;14.614;2024-01-27T10:39:41;100251.71;;;10.07;29.24
75945;BME280;64628;50.104;14.614;2024-01-27T10:42:08;100246.46;;;9.74;29.39
75945;BME280;64628;50.104;14.614;2024-01-27T10:44:32;100242.98;;;9.82;29.56
75945;BME280;64628;50.104;14.614;2024-01-27T10:47:01;100244.82;;;9.38;29.76
75945;BME280;64628;50.104;14.614;2024-01-27T10:49:24;100240.95;;;9.40;29.91
75945;BME280;64628;50.104;14.614;2024-01-27T10:51:53;100238.63;;;9.63;30.03
75945;BME280;64628;50.104;14.614;2024-01-27T10:54:18;100240.37;;;9.63;30.10
75945;BME280;64628;50.104;14.614;2024-01-27T10:56:40;100243.36;;;9.29;30.55
75945;BME280;64628;50.104;14.614;2024-01-27T10:59:05;100245.17;;;9.35;30.39
75945;BME280;64628;50.104;14.614;2024-01-27T11:01:31;100249.38;;;9.85;30.03
75945;BME280;64628;50.104;14.614;2024-01-27T11:03:56;100244.97;;;9.76;29.86
75945;BME280;64628;50.104;14.614;2024-01-27T11:06:22;100245.85;;;9.98;29.82
75945;BME280;64628;50.104;14.614;2024-01-27T11:08:47;100242.82;;;9.69;30.04
75945;BME280;64628;50.104;14.614;2024-01-27T11:11:12;100236.90;;;9.43;30.01
75945;BME280;64628;50.104;14.614;2024-01-27T11:13:38;100234.71;;;9.90;29.97
75945;BME280;64628;50.104;14.614;2024-01-27T11:16:04;100240.38;;;10.20;29.85
75945;BME280;64628;50.104;14.614;2024-01-27T11:18:29;100234.10;;;9.77;29.55
75945;BME280;64628;50.104;14.614;2024-01-27T11:20:54;100235.48;;;9.83;29.49
75945;BME280;64628;50.104;14.614;2024-01-27T11:23:20;100242.65;;;9.91;29.72
75945;BME280;64628;50.104;14.614;2024-01-27T11:25:44;100248.08;;;9.72;29.69
75945;BME280;64628;50.104;14.614;2024-01-27T11:28:12;100251.85;;;10.23;29.67
75945;BME280;64628;50.104;14.614;2024-01-27T11:33:02;100247.44;;;10.01;29.41
75945;BME280;64628;50.104;14.614;2024-01-27T11:35:27;100248.98;;;10.11;29.60
75945;BME280;64628;50.104;14.614;2024-01-27T11:37:52;100245.69;;;8.97;30.50
75945;BME280;64628;50.104;14.614;2024-01-27T11:40:18;100249.79;;;9.54;30.25
75945;BME280;64628;50.104;14.614;2024-01-27T11:42:42;100251.61;;;9.67;30.36
75945;BME280;64628;50.104;14.614;2024-01-27T11:45:08;100247.46;;;9.64;29.88
75945;BME280;64628;50.104;14.614;2024-01-27T11:47:33;100247.42;;;9.56;30.11
75945;BME280;64628;50.104;14.614;2024-01-27T11:49:58;100239.09;;;9.64;30.30
75945;BME280;64628;50.104;14.614;2024-01-27T11:52:24;100236.49;;;9.98;29.68
75945;BME280;64628;50.104;14.614;2024-01-27T11:54:54;100227.27;;;10.28;29.55
75945;BME280;64628;50.104;14.614;2024-01-27T11:57:15;100221.66;;;10.31;29.49
75945;BME280;64628;50.104;14.614;2024-01-27T11:59:40;100226.86;;;10.02;29.18
75945;BME280;64628;50.104;14.614;2024-01-27T12:02:06;100221.65;;;11.17;28.90
75945;BME280;64628;50.104;14.614;2024-01-27T12:04:31;100224.14;;;10.75;28.32
75945;BME280;64628;50.104;14.614;2024-01-27T12:06:56;100224.83;;;10.80;28.19
75945;BME280;64628;50.104;14.614;2024-01-27T12:09:22;100224.47;;;11.19;28.80
75945;BME280;64628;50.104;14.614;2024-01-27T12:11:47;100225.39;;;11.23;28.50
75945;BME280;64628;50.104;14.614;2024-01-27T12:14:12;100223.79;;;10.74;28.39
75945;BME280;64628;50.104;14.614;2024-01-27T12:16:39;100228.40;;;11.30;28.30
75945;BME280;64628;50.104;14.614;2024-01-27T12:19:04;100221.66;;;11.03;28.27
75945;BME280;64628;50.104;14.614;2024-01-27T12:21:29;100222.02;;;10.37;28.29
75945;BME280;64628;50.104;14.614;2024-01-27T12:23:56;100227.85;;;10.54;28.87
75945;BME280;64628;50.104;14.614;2024-01-27T12:26:21;100218.91;;;10.89;28.65
75945;BME280;64628;50.104;14.614;2024-01-27T12:28:46;100217.21;;;10.61;28.88
75945;BME280;64628;50.104;14.614;2024-01-27T12:31:10;100226.28;;;10.71;29.03
75945;BME280;64628;50.104;14.614;2024-01-27T12:33:36;100226.40;;;11.22;28.89
75945;BME280;64628;50.104;14.614;2024-01-27T12:36:01;100230.25;;;11.35;28.53
75945;BME280;64628;50.104;14.614;2024-01-27T12:38:27;100231.38;;;11.71;28.25
75945;BME280;64628;50.104;14.614;2024-01-27T12:40:52;100236.48;;;11.47;27.79
75945;BME280;64628;50.104;14.614;2024-01-27T12:43:17;100232.85;;;10.84;28.04
75945;BME280;64628;50.104;14.614;2024-01-27T12:45:42;100226.70;;;10.71;28.39